Time;durP1;ratioP1;P1;durP2;ratioP2;P2;SDS_P1;SDS_P2;PMS_P1;PMS_P2;Temp;Humidity;BMP_temperature;BMP_pressure;BME280_temperature;BME280_humidity;BME280_pressure;Samples;Min_cycle;Max_cycle;Signal;HPM_P1;HPM_P2
2023/01/05 00:00:55;;;;;;;79.55;47.17;;;;;;;5.20;100.00;93883.63;5092000;28;20084;-70
2023/01/05 00:03:22;;;;;;;84.65;51.58;;;;;;;5.21;100.00;93884.44;5091377;28;20393;-70
2023/01/05 00:05:49;;;;;;;83.70;46.00;;;;;;;5.30;100.00;93880.94;5091821;28;20044;-70
2023/01/05 00:08:15;;;;;;;75.13;42.35;;;;;;;5.33;100.00;93880.59;5091283;28;20070;-70
2023/01/05 00:24:25;;;;;;;63.80;37.75;;;;;;;5.40;100.00;93874.84;5091199;28;20106;-70
2023/01/05 00:26:53;;;;;;;63.92;38.95;;;;;;;5.47;100.00;93878.38;5091543;28;20101;-70
2023/01/05 00:29:20;;;;;;;62.70;37.35;;;;;;;5.55;100.00;93878.34;5091484;28;20458;-70
2023/01/05 00:31:47;;;;;;;67.50;40.38;;;;;;;5.58;100.00;93877.22;5090818;28;20501;-71
2023/01/05 00:34:13;;;;;;;65.22;38.85;;;;;;;5.62;100.00;93871.63;5091208;28;20040;-69
2023/01/05 00:36:40;;;;;;;67.80;40.67;;;;;;;5.69;100.00;93868.47;5090746;28;20044;-71
2023/01/05 00:39:07;;;;;;;72.10;44.35;;;;;;;5.68;100.00;93861.75;5090968;28;20052;-71
2023/01/05 00:41:34;;;;;;;78.18;44.95;;;;;;;5.75;100.00;93873.69;5090675;28;20089;-71
2023/01/05 00:44:02;;;;;;;64.78;39.67;;;;;;;5.81;100.00;93868.91;5090218;28;20047;-71
2023/01/05 00:46:28;;;;;;;61.00;37.50;;;;;;;5.82;100.00;93870.47;5091072;28;20442;-71
2023/01/05 00:48:55;;;;;;;57.50;34.80;;;;;;;5.80;100.00;93870.66;5090678;28;20097;-71
2023/01/05 00:51:22;;;;;;;55.60;35.28;;;;;;;5.85;100.00;93867.63;5090879;28;20041;-70
2023/01/05 00:53:49;;;;;;;51.67;33.13;;;;;;;5.86;100.00;93867.47;5090532;28;20096;-70
2023/01/05 00:56:16;;;;;;;49.60;30.88;;;;;;;5.86;100.00;93862.38;5090964;28;20097;-70
2023/01/05 00:58:43;;;;;;;50.25;30.95;;;;;;;5.84;100.00;93858.38;5090756;28;20047;-70
2023/01/05 01:01:12;;;;;;;50.78;32.25;;;;;;;5.82;100.00;93863.63;5090624;28;20048;-70
2023/01/05 01:03:39;;;;;;;50.30;31.88;;;;;;;5.69;100.00;93848.84;5090306;28;20923;-71
2023/01/05 01:06:06;;;;;;;54.97;32.13;;;;;;;5.77;100.00;93863.34;5090499;28;20090;-71
2023/01/05 01:08:32;;;;;;;50.90;32.13;;;;;;;5.80;100.00;93864.75;5090485;28;20051;-70
2023/01/05 01:11:04;;;;;;;52.00;33.50;;;;;;;5.61;100.00;93836.13;5090376;28;20055;-71
2023/01/05 01:13:30;;;;;;;57.78;34.15;;;;;;;5.81;100.00;93867.16;5090039;28;20044;-70
2023/01/05 01:15:57;;;;;;;55.15;35.28;;;;;;;5.78;100.00;93854.72;5090289;28;20500;-70
2023/01/05 01:18:25;;;;;;;55.45;33.92;;;;;;;5.80;100.00;93865.56;5090361;28;20051;-70
2023/01/05 01:20:52;;;;;;;50.10;33.05;;;;;;;5.80;100.00;93857.13;5090428;28;20040;-70
2023/01/05 01:23:18;;;;;;;51.67;33.50;;;;;;;5.85;100.00;93859.97;5090420;28;20051;-70
2023/01/05 01:25:45;;;;;;;51.08;33.45;;;;;;;5.86;100.00;93859.81;5090197;28;20041;-70
2023/01/05 01:28:12;;;;;;;50.90;32.72;;;;;;;5.91;100.00;93853.41;5090240;28;20109;-70
2023/01/05 01:30:39;;;;;;;52.42;33.20;;;;;;;5.89;100.00;93851.03;5089913;28;20109;-71
2023/01/05 01:33:05;;;;;;;52.03;31.88;;;;;;;5.94;100.00;93845.44;5089854;28;20094;-71
2023/01/05 01:35:33;;;;;;;52.67;34.17;;;;;;;5.95;100.00;93844.47;5090155;28;20048;-71
2023/01/05 01:38:00;;;;;;;52.70;32.30;;;;;;;5.96;100.00;93833.31;5076529;28;20455;-71
2023/01/05 01:40:27;;;;;;;50.97;31.60;;;;;;;5.91;100.00;93822.81;5090149;28;20093;-71
2023/01/05 01:42:54;;;;;;;48.80;31.00;;;;;;;5.95;100.00;93829.97;5089746;28;20169;-71
2023/01/05 01:45:22;;;;;;;49.20;33.00;;;;;;;5.97;100.00;93829.81;5089743;28;20044;-71
2023/01/05 01:47:54;;;;;;;56.15;33.33;;;;;;;5.94;100.00;93819.94;5089702;28;20446;-71
2023/01/05 01:50:26;;;;;;;54.95;34.60;;;;;;;5.95;100.00;93816.41;5086396;28;20136;-71
2023/01/05 01:52:58;;;;;;;55.50;35.22;;;;;;;5.87;100.00;93804.50;5089298;28;20044;-71
2023/01/05 01:55:26;;;;;;;53.00;33.95;;;;;;;5.92;100.00;93807.34;5089125;28;20117;-70
2023/01/05 01:57:54;;;;;;;54.95;32.60;;;;;;;5.89;100.00;93803.38;5089137;28;20093;-71
2023/01/05 02:00:20;;;;;;;48.67;30.10;;;;;;;5.84;100.00;93800.53;5086156;28;20044;-71
2023/01/05 02:02:50;;;;;;;49.53;30.10;;;;;;;5.84;100.00;93792.88;5068709;28;20500;-71
2023/01/05 02:05:19;;;;;;;45.90;29.70;;;;;;;5.83;100.00;93793.06;5068973;28;20048;-71
2023/01/05 02:07:47;;;;;;;45.45;28.23;;;;;;;5.80;100.00;93799.28;5068498;28;20098;-71
2023/01/05 02:10:18;;;;;;;50.78;30.38;;;;;;;5.79;100.00;93786.69;5068536;28;20048;-71
2023/01/05 02:13:02;;;;;;;50.33;31.20;;;;;;;5.59;100.00;93752.19;5068433;28;20041;-71
2023/01/05 02:15:39;;;;;;;51.17;32.22;;;;;;;5.77;100.00;93775.84;5068882;28;20196;-71
2023/01/05 02:18:20;;;;;;;51.95;32.03;;;;;;;5.75;100.00;93779.38;5068712;28;21201;-71
2023/01/05 02:20:59;;;;;;;53.47;32.30;;;;;;;5.75;100.00;93774.28;5068702;28;20040;-71
2023/01/05 02:24:01;;;;;;;49.88;32.45;;;;;;;5.74;100.00;93764.25;5068000;28;20048;-70
2023/01/05 02:26:57;;;;;;;48.67;30.92;;;;;;;5.72;100.00;93769.50;5068487;28;20044;-71
2023/01/05 02:29:55;;;;;;;49.17;28.92;;;;;;;5.69;100.00;93762.19;5068230;28;20489;-71
2023/01/05 02:32:28;;;;;;;43.38;28.05;;;;;;;5.72;100.00;93769.50;5048170;28;20492;-71
2023/01/05 02:35:08;;;;;;;46.22;29.35;;;;;;;5.70;100.00;93763.00;5068586;28;20475;-71
2023/01/05 02:37:41;;;;;;;42.88;27.23;;;;;;;5.73;100.00;93770.28;5068670;28;20040;-71
2023/01/05 02:40:13;;;;;;;41.03;28.00;;;;;;;5.75;100.00;93771.72;5068607;28;20045;-71
2023/01/05 02:42:43;;;;;;;42.75;28.02;;;;;;;5.80;100.00;93771.25;5068110;28;20464;-71
2023/01/05 02:45:10;;;;;;;41.53;26.80;;;;;;;5.81;100.00;93772.03;5068208;28;20052;-71
2023/01/05 02:47:41;;;;;;;46.92;30.05;;;;;;;5.78;100.00;93770.59;5068248;28;20056;-71
2023/01/05 02:50:13;;;;;;;43.30;29.10;;;;;;;5.74;100.00;93772.69;5068217;28;20045;-70
2023/01/05 02:52:46;;;;;;;43.08;27.60;;;;;;;5.75;100.00;93765.84;5068313;28;20903;-71
2023/01/05 02:55:17;;;;;;;49.10;28.48;;;;;;;5.77;100.00;93761.38;5068315;28;20048;-71
2023/01/05 02:57:50;;;;;;;44.20;27.83;;;;;;;5.78;100.00;93754.53;5068049;28;20044;-71
2023/01/05 03:00:21;;;;;;;43.50;27.80;;;;;;;5.77;100.00;93751.16;5068399;28;20040;-71
2023/01/05 03:02:52;;;;;;;46.35;29.13;;;;;;;5.75;100.00;93748.00;5068283;28;20094;-71
2023/01/05 03:05:25;;;;;;;41.55;27.33;;;;;;;5.80;100.00;93758.50;5068257;28;20056;-71
2023/01/05 03:08:05;;;;;;;46.70;28.75;;;;;;;5.81;100.00;93751.63;5068281;28;20090;-71
2023/01/05 03:16:18;;;;;;;46.50;29.70;;;;;;;5.75;100.00;93741.13;5057825;28;20060;-71
2023/01/05 03:35:32;;;;;;;50.85;30.77;;;;;;;5.76;100.00;93724.09;5068813;28;20060;-71
2023/01/05 03:38:04;;;;;;;56.30;33.50;;;;;;;5.62;100.00;93702.66;5071257;28;20076;-72
2023/01/05 03:40:33;;;;;;;54.08;30.05;;;;;;;5.69;100.00;93708.66;5071347;28;20094;-71
2023/01/05 03:43:02;;;;;;;53.08;30.77;;;;;;;5.74;100.00;93700.53;5071507;28;20456;-71
2023/01/05 03:45:35;;;;;;;51.10;30.15;;;;;;;5.76;100.00;93701.16;5071172;28;20542;-71
2023/01/05 03:48:01;;;;;;;47.95;29.85;;;;;;;5.79;100.00;93702.56;5071347;28;20048;-71
2023/01/05 03:50:29;;;;;;;49.58;28.48;;;;;;;5.80;100.00;93704.97;5072914;28;20044;-71
2023/01/05 03:52:56;;;;;;;43.15;27.83;;;;;;;5.85;100.00;93712.09;5071478;28;20045;-71
2023/01/05 03:55:23;;;;;;;40.67;26.92;;;;;;;5.85;100.00;93710.34;5070907;28;20562;-71
2023/01/05 03:57:50;;;;;;;46.95;29.58;;;;;;;5.91;100.00;93705.50;5071379;28;20090;-71
2023/01/05 04:00:17;;;;;;;51.10;30.58;;;;;;;5.91;100.00;93700.41;5071067;28;20543;-71
2023/01/05 04:02:44;;;;;;;50.22;30.33;;;;;;;5.89;100.00;93701.38;5071036;28;20041;-71
2023/01/05 04:05:11;;;;;;;40.10;26.58;;;;;;;5.87;100.00;93694.88;5071034;28;20044;-71
2023/01/05 04:07:39;;;;;;;32.20;20.88;;;;;;;5.92;100.00;93699.47;5070998;28;20094;-71
2023/01/05 04:10:06;;;;;;;31.02;19.13;;;;;;;5.85;100.00;93684.84;5071073;28;20401;-71
2023/01/05 04:12:33;;;;;;;29.23;19.23;;;;;;;5.82;100.00;93682.63;5071090;28;20098;-71
2023/01/05 04:14:59;;;;;;;29.75;20.23;;;;;;;5.88;100.00;93692.16;5070889;28;20044;-71
2023/01/05 04:17:26;;;;;;;30.23;19.55;;;;;;;5.92;100.00;93692.59;5070656;28;20040;-71
2023/01/05 04:19:53;;;;;;;28.73;18.05;;;;;;;5.93;100.00;93693.41;5070896;28;20101;-70
2023/01/05 04:22:20;;;;;;;26.65;17.75;;;;;;;5.97;100.00;93692.13;5070645;28;20044;-70
2023/01/05 04:24:48;;;;;;;33.22;19.25;;;;;;;5.97;100.00;93685.25;5070448;28;20094;-70
2023/01/05 04:27:15;;;;;;;32.58;19.85;;;;;;;5.96;100.00;93683.66;5070783;28;20045;-70
2023/01/05 04:29:41;;;;;;;31.85;20.20;;;;;;;5.95;100.00;93676.19;5070276;28;20036;-71
2023/01/05 04:32:08;;;;;;;36.45;23.58;;;;;;;5.94;100.00;93679.69;5070636;28;20044;-72
2023/01/05 04:34:35;;;;;;;34.47;22.40;;;;;;;5.97;100.00;93679.38;5070342;28;20044;-71
2023/01/05 04:37:01;;;;;;;32.95;21.25;;;;;;;5.99;100.00;93674.88;5070398;28;20393;-70
2023/01/05 04:39:28;;;;;;;35.70;21.67;;;;;;;5.99;100.00;93683.34;5070336;28;20193;-70
2023/01/05 04:41:56;;;;;;;31.52;20.08;;;;;;;6.03;100.00;93678.72;5070572;28;20044;-71
2023/01/05 04:44:23;;;;;;;31.35;19.27;;;;;;;6.03;100.00;93683.81;5070539;28;20115;-71
2023/01/05 04:46:50;;;;;;;35.80;22.58;;;;;;;6.05;100.00;93679.31;5069247;28;20040;-71
2023/01/05 04:49:16;;;;;;;36.72;23.88;;;;;;;6.09;100.00;93675.47;5070050;28;20546;-71
2023/01/05 04:51:43;;;;;;;38.85;25.27;;;;;;;6.11;100.00;93688.84;5071803;28;20063;-71
2023/01/05 04:54:10;;;;;;;35.47;23.08;;;;;;;6.14;100.00;93693.63;5069850;28;20093;-71
2023/01/05 04:56:37;;;;;;;45.60;26.48;;;;;;;6.19;100.00;93694.84;5070178;28;20040;-70
2023/01/05 04:59:05;;;;;;;43.40;25.15;;;;;;;6.16;100.00;93698.56;5069960;28;20048;-71
2023/01/05 05:01:32;;;;;;;40.22;24.38;;;;;;;6.08;100.00;93686.66;5070097;28;20090;-71
2023/01/05 05:03:58;;;;;;;45.13;25.85;;;;;;;6.20;100.00;93696.47;5069911;28;20466;-71
2023/01/05 05:06:25;;;;;;;46.60;27.75;;;;;;;6.22;100.00;93702.97;5069609;28;20040;-69
2023/01/05 05:08:52;;;;;;;58.28;32.97;;;;;;;6.25;100.00;93699.28;5069672;28;20048;-70
2023/01/05 05:11:20;;;;;;;68.78;38.25;;;;;;;6.25;100.00;93696.75;5069707;28;20522;-70
2023/01/05 05:13:47;;;;;;;80.03;43.38;;;;;;;6.24;100.00;93705.34;5069809;28;20037;-70
2023/01/05 05:16:15;;;;;;;81.70;41.75;;;;;;;6.25;100.00;93707.72;5069520;28;20102;-69
2023/01/05 05:18:42;;;;;;;79.93;40.92;;;;;;;6.14;100.00;93691.06;5069683;28;20044;-70
2023/01/05 05:21:09;;;;;;;70.63;38.63;;;;;;;6.25;100.00;93712.81;5069437;28;20044;-70
2023/01/05 05:23:35;;;;;;;63.95;35.70;;;;;;;6.25;100.00;93707.72;5069390;28;20045;-71
2023/01/05 05:26:02;;;;;;;62.28;34.10;;;;;;;6.23;100.00;93712.22;5069034;28;20570;-71
2023/01/05 05:28:29;;;;;;;57.17;31.60;;;;;;;6.22;100.00;93707.28;5069649;28;20047;-71
2023/01/05 05:30:56;;;;;;;59.47;32.33;;;;;;;6.18;100.00;93706.81;5069111;28;20550;-70
2023/01/05 05:33:25;;;;;;;47.58;28.27;;;;;;;6.06;100.00;93692.88;5069854;28;20072;-71
2023/01/05 05:35:52;;;;;;;45.85;26.77;;;;;;;6.14;100.00;93703.81;5069979;28;20451;-71
2023/01/05 05:38:21;;;;;;;39.20;24.88;;;;;;;6.17;100.00;93699.34;5069230;28;20129;-71
2023/01/05 05:40:49;;;;;;;35.45;22.35;;;;;;;5.92;100.00;93674.75;5072133;28;20049;-71
2023/01/05 05:43:16;;;;;;;41.03;24.92;;;;;;;6.15;100.00;93705.41;5069022;28;20447;-71
2023/01/05 05:45:43;;;;;;;38.97;24.60;;;;;;;6.17;100.00;93699.34;5069033;28;20048;-71
2023/01/05 05:48:09;;;;;;;38.78;25.77;;;;;;;6.15;100.00;93686.75;5068869;28;20040;-71
2023/01/05 05:50:38;;;;;;;43.55;26.20;;;;;;;6.14;100.00;93687.72;5070650;28;20496;-69
2023/01/05 05:53:04;;;;;;;54.67;32.63;;;;;;;6.17;100.00;93694.25;5067082;28;20693;-70
2023/01/05 05:55:32;;;;;;;54.75;34.97;;;;;;;6.13;100.00;93689.50;5067052;28;20048;-70
2023/01/05 05:57:58;;;;;;;53.95;32.65;;;;;;;6.17;100.00;93684.84;5068937;28;20106;-70
2023/01/05 06:00:25;;;;;;;47.00;29.92;;;;;;;6.20;100.00;93676.06;5068876;28;20060;-69
2023/01/05 06:02:52;;;;;;;51.75;31.75;;;;;;;6.18;100.00;93676.22;5069098;28;20044;-71
2023/01/05 06:05:19;;;;;;;42.05;28.70;;;;;;;6.15;100.00;93674.81;5068401;28;20610;-71
2023/01/05 06:07:47;;;;;;;40.90;25.15;;;;;;;6.11;100.00;93673.53;5068709;28;20098;-70
2023/01/05 06:10:14;;;;;;;35.10;23.63;;;;;;;6.10;100.00;93673.72;5068579;28;20159;-70
2023/01/05 06:12:41;;;;;;;35.80;24.08;;;;;;;6.13;100.00;93673.38;5068617;28;20053;-70
2023/01/05 06:15:09;;;;;;;37.80;25.77;;;;;;;6.11;100.00;93670.22;5068383;28;20075;-71
2023/01/05 06:17:35;;;;;;;40.38;23.65;;;;;;;6.12;100.00;93666.69;5068178;28;20040;-70
2023/01/05 06:20:02;;;;;;;36.53;22.75;;;;;;;6.18;100.00;93672.88;5068090;28;20570;-70
2023/01/05 06:22:29;;;;;;;33.28;21.67;;;;;;;6.18;100.00;93671.13;5068671;28;20409;-70
2023/01/05 06:24:57;;;;;;;35.08;21.48;;;;;;;6.21;100.00;93678.41;5068564;28;20053;-70
2023/01/05 06:27:24;;;;;;;31.30;20.95;;;;;;;6.23;100.00;93666.28;5068410;28;20049;-70
2023/01/05 06:29:50;;;;;;;38.63;21.63;;;;;;;6.26;100.00;93673.59;5068805;28;20040;-70
2023/01/05 06:32:17;;;;;;;34.47;21.55;;;;;;;6.31;100.00;93672.28;5068706;28;20070;-70
2023/01/05 06:34:44;;;;;;;38.65;23.05;;;;;;;6.30;100.00;93657.94;5068740;28;20393;-70
2023/01/05 06:37:10;;;;;;;37.22;21.45;;;;;;;6.27;100.00;93661.63;5068482;28;20068;-70
2023/01/05 06:39:37;;;;;;;33.38;21.45;;;;;;;6.23;100.00;93653.53;5068421;28;20090;-70
2023/01/05 06:42:05;;;;;;;35.28;21.85;;;;;;;6.24;100.00;93655.13;5068344;28;20049;-71
2023/01/05 06:44:32;;;;;;;35.65;20.63;;;;;;;6.30;100.00;93655.41;5068217;28;20061;-70
2023/01/05 06:46:59;;;;;;;43.58;23.42;;;;;;;6.36;100.00;93659.81;5068380;28;20044;-70
2023/01/05 06:49:26;;;;;;;36.75;22.85;;;;;;;6.39;100.00;93656.94;5068139;28;20048;-70
2023/01/05 06:51:52;;;;;;;36.47;21.95;;;;;;;6.40;100.00;93659.28;5070252;28;20080;-70
2023/01/05 06:54:19;;;;;;;33.42;20.13;;;;;;;6.19;100.00;93621.69;5068082;28;20040;-70
2023/01/05 06:56:46;;;;;;;31.98;20.88;;;;;;;6.47;100.00;93663.72;5068426;28;20037;-70
2023/01/05 06:59:14;;;;;;;32.45;19.23;;;;;;;6.49;100.00;93666.88;5068024;28;20070;-70
2023/01/05 07:01:41;;;;;;;30.85;19.48;;;;;;;6.48;100.00;93670.41;5068287;28;20044;-70
2023/01/05 07:04:07;;;;;;;28.98;18.90;;;;;;;6.50;100.00;93669.28;5068234;28;20094;-70
2023/01/05 07:06:35;;;;;;;27.35;18.05;;;;;;;6.54;100.00;93662.06;5067902;28;20451;-70
2023/01/05 07:09:01;;;;;;;25.90;17.95;;;;;;;6.55;100.00;93659.34;5067904;28;20292;-70
2023/01/05 07:11:28;;;;;;;29.95;19.98;;;;;;;6.63;100.00;93657.69;5071081;28;20044;-70
2023/01/05 07:13:55;;;;;;;32.80;20.55;;;;;;;6.68;100.00;93668.16;5071843;28;20045;-70
2023/01/05 07:16:23;;;;;;;35.40;18.77;;;;;;;6.69;100.00;93667.19;5071993;28;20397;-70
2023/01/05 07:18:50;;;;;;;31.85;18.17;;;;;;;6.73;100.00;93667.63;5072023;28;21006;-71
2023/01/05 07:21:16;;;;;;;34.40;19.95;;;;;;;6.75;100.00;93665.72;5071953;28;20386;-70
2023/01/05 07:23:43;;;;;;;34.13;20.02;;;;;;;6.79;100.00;93664.38;5072117;28;20041;-70
2023/01/05 07:26:10;;;;;;;30.63;19.05;;;;;;;6.82;100.00;93664.81;5071522;28;20500;-70
2023/01/05 07:28:37;;;;;;;27.65;17.60;;;;;;;6.86;100.00;93669.59;5071620;28;20041;-70
2023/01/05 07:31:06;;;;;;;25.17;16.42;;;;;;;6.65;100.00;93633.56;5071423;28;20463;-70
2023/01/05 07:33:34;;;;;;;23.10;15.20;;;;;;;6.68;100.00;93643.41;5069793;28;20051;-70
2023/01/05 07:36:01;;;;;;;22.00;13.02;;;;;;;6.81;100.00;93658.13;5070619;28;20060;-70
2023/01/05 07:38:27;;;;;;;22.65;14.05;;;;;;;6.85;100.00;93648.34;5071318;28;20397;-70
2023/01/05 07:40:54;;;;;;;18.13;11.93;;;;;;;6.78;100.00;93639.81;5071170;28;20158;-71
2023/01/05 07:43:21;;;;;;;16.17;11.80;;;;;;;6.82;100.00;93652.03;5071327;28;20049;-70
2023/01/05 07:45:47;;;;;;;29.67;19.27;;;;;;;6.84;100.00;93654.44;5071241;28;20048;-70
2023/01/05 07:48:14;;;;;;;31.42;20.65;;;;;;;6.88;100.00;93635.25;5070979;28;20044;-70
2023/01/05 07:50:42;;;;;;;25.52;17.17;;;;;;;6.98;100.00;93636.75;5072732;28;20508;-70
2023/01/05 07:53:09;;;;;;;28.40;17.48;;;;;;;6.95;100.00;93635.34;5070962;28;20455;-70
2023/01/05 07:55:36;;;;;;;19.38;13.77;;;;;;;6.93;100.00;93637.25;5070962;28;20067;-70
2023/01/05 07:58:02;;;;;;;15.13;11.45;;;;;;;6.89;100.00;93643.72;5070756;28;20052;-71
2023/01/05 08:00:29;;;;;;;20.52;13.27;;;;;;;6.93;100.00;93642.38;5071077;28;20081;-71
2023/01/05 08:02:56;;;;;;;20.55;13.52;;;;;;;6.91;100.00;93640.00;5084970;28;20044;-70
2023/01/05 08:05:23;;;;;;;23.17;14.80;;;;;;;6.96;100.00;93634.38;5091756;28;20102;-70
2023/01/05 08:07:51;;;;;;;20.13;13.07;;;;;;;6.99;100.00;93643.44;5091399;28;20040;-70
2023/01/05 08:10:30;;;;;;;16.27;11.13;;;;;;;6.99;100.00;93633.22;5091808;28;20044;-70
2023/01/05 08:15:46;;;;;;;18.63;12.45;;;;;;;7.15;100.00;93634.78;5091543;28;20074;-70
2023/01/05 08:18:13;;;;;;;20.42;13.02;;;;;;;7.17;100.00;93636.19;5091481;28;20416;-70
2023/01/05 08:20:40;;;;;;;19.83;13.15;;;;;;;7.26;100.00;93646.34;5091499;28;20052;-70
2023/01/05 08:23:08;;;;;;;18.92;11.52;;;;;;;7.30;100.00;93645.78;5089864;28;20510;-70
2023/01/05 08:25:35;;;;;;;18.42;11.57;;;;;;;7.35;100.00;93642.69;5091235;28;20052;-71
2023/01/05 08:28:01;;;;;;;21.40;13.05;;;;;;;7.45;100.00;93647.56;5091282;28;20101;-70
2023/01/05 08:30:28;;;;;;;22.95;14.18;;;;;;;7.47;100.00;93637.94;5088568;28;20466;-70
2023/01/05 08:32:55;;;;;;;16.77;11.38;;;;;;;7.43;100.00;93624.72;5080763;28;20036;-70
2023/01/05 08:35:21;;;;;;;17.48;12.07;;;;;;;7.60;100.00;93642.41;5091255;28;20040;-70
2023/01/05 08:37:48;;;;;;;19.38;12.15;;;;;;;7.69;100.00;93645.63;5090980;28;20098;-70
2023/01/05 08:40:16;;;;;;;22.38;11.75;;;;;;;7.85;100.00;93634.38;5090718;28;20492;-70
2023/01/05 08:42:46;;;;;;;18.50;11.32;;;;;;;7.95;100.00;93640.00;5091022;28;20048;-70
2023/01/05 08:45:13;;;;;;;13.25;9.13;;;;;;;7.95;100.00;93632.31;5090895;28;20040;-70
2023/01/05 08:47:40;;;;;;;15.77;10.43;;;;;;;8.11;100.00;93635.59;5090719;28;20056;-70
2023/01/05 08:50:09;;;;;;;13.98;9.52;;;;;;;8.16;100.00;93631.50;5090616;28;20047;-70
2023/01/05 08:52:36;;;;;;;15.20;10.18;;;;;;;8.25;100.00;93633.97;5091141;28;20036;-70
2023/01/05 08:55:03;;;;;;;16.98;10.57;;;;;;;8.30;100.00;93623.97;5090446;28;20401;-71
2023/01/05 08:57:31;;;;;;;14.27;10.50;;;;;;;8.36;100.00;93623.22;5090549;28;20565;-71
2023/01/05 08:59:58;;;;;;;13.32;8.77;;;;;;;8.37;100.00;93617.13;5090448;28;20044;-71
2023/01/05 09:02:25;;;;;;;15.02;9.02;;;;;;;8.44;100.00;93617.16;5090699;28;20499;-70
2023/01/05 09:04:52;;;;;;;15.30;10.18;;;;;;;8.52;100.00;93613.72;5090575;28;20051;-70
2023/01/05 09:07:19;;;;;;;13.77;9.68;;;;;;;8.63;100.00;93610.63;5090679;28;20048;-70
2023/01/05 09:09:45;;;;;;;14.38;10.05;;;;;;;8.79;100.00;93606.97;5090412;28;20496;-70
2023/01/05 09:12:12;;;;;;;19.23;10.23;;;;;;;8.90;100.00;93602.31;5090190;28;20065;-70
2023/01/05 09:14:40;;;;;;;16.55;10.45;;;;;;;8.88;100.00;93607.63;5090001;28;20048;-70
2023/01/05 09:17:07;;;;;;;17.55;10.85;;;;;;;8.74;100.00;93585.50;5090237;28;20729;-70
2023/01/05 09:19:34;;;;;;;23.80;13.13;;;;;;;8.89;100.00;93586.13;5090490;28;20048;-70
2023/01/05 09:22:00;;;;;;;18.80;10.98;;;;;;;8.93;100.00;93577.09;5090202;28;20113;-70
2023/01/05 09:24:27;;;;;;;19.85;12.25;;;;;;;9.01;100.00;93583.03;5090153;28;20048;-70
2023/01/05 09:26:54;;;;;;;18.30;12.32;;;;;;;9.09;100.00;93565.72;5090116;28;20101;-70
2023/01/05 09:29:21;;;;;;;14.07;9.18;;;;;;;9.11;100.00;93554.50;5089839;28;20040;-70
2023/01/05 09:31:49;;;;;;;17.38;9.65;;;;;;;9.20;100.00;93540.53;5089968;28;20484;-70
2023/01/05 09:34:16;;;;;;;13.68;9.52;;;;;;;9.27;100.00;93538.00;5089476;28;20519;-70
2023/01/05 09:36:43;;;;;;;14.10;9.68;;;;;;;9.31;100.00;93536.63;5089937;28;20040;-70
2023/01/05 09:39:10;;;;;;;13.20;8.18;;;;;;;9.29;100.00;93536.81;5089645;28;20492;-70
2023/01/05 09:41:40;;;;;;;11.57;8.52;;;;;;;9.30;100.00;93523.00;5089788;28;20090;-70
2023/01/05 09:44:15;;;;;;;13.13;8.07;;;;;;;9.36;100.00;93511.97;5089589;28;20495;-70
2023/01/05 09:46:46;;;;;;;13.25;8.77;;;;;;;9.56;100.00;93516.38;5089762;28;20458;-70
2023/01/05 09:49:17;;;;;;;14.27;9.77;;;;;;;9.60;100.00;93498.81;5089704;28;20443;-70
2023/01/05 09:51:44;;;;;;;15.27;9.18;;;;;;;9.72;100.00;93489.53;5089909;28;20052;-70
2023/01/05 09:54:16;;;;;;;14.40;8.30;;;;;;;9.74;100.00;93482.44;5089475;28;20051;-70
2023/01/05 09:56:45;;;;;;;11.65;7.93;;;;;;;9.72;100.00;93481.84;5089279;28;20564;-70
2023/01/05 09:59:15;;;;;;;11.27;7.70;;;;;;;9.52;100.00;93434.88;5089838;28;20399;-70
2023/01/05 10:01:43;;;;;;;14.18;8.38;;;;;;;9.71;100.00;93464.06;5089392;28;20052;-70
2023/01/05 10:04:15;;;;;;;12.35;8.70;;;;;;;9.72;100.00;93469.00;5089472;28;20044;-70
2023/01/05 10:06:46;;;;;;;11.90;7.88;;;;;;;9.73;100.00;93474.94;5089157;28;20097;-70
2023/01/05 10:09:17;;;;;;;11.95;8.20;;;;;;;9.67;100.00;93473.94;5089599;28;20048;-70
2023/01/05 10:14:39;;;;;;;12.77;8.10;;;;;;;9.54;100.00;93459.34;5089224;28;20093;-70
2023/01/05 10:17:12;;;;;;;10.82;7.57;;;;;;;9.61;100.00;93461.91;5089598;28;20048;-70
2023/01/05 10:19:40;;;;;;;14.50;8.30;;;;;;;9.70;100.00;93458.16;5089147;28;20105;-70
2023/01/05 10:22:22;;;;;;;15.10;8.40;;;;;;;9.76;100.00;93459.16;5089578;28;20048;-71
2023/01/05 10:24:57;;;;;;;13.55;8.75;;;;;;;9.81;100.00;93440.59;5089008;28;20575;-71
2023/01/05 10:27:28;;;;;;;13.55;9.05;;;;;;;9.95;100.00;93444.72;5089342;28;20081;-70
2023/01/05 10:30:03;;;;;;;16.60;9.98;;;;;;;10.04;100.00;93440.16;5072065;28;20055;-70
2023/01/05 10:32:55;;;;;;;15.77;8.00;;;;;;;10.14;100.00;93437.97;5087734;28;20097;-71
2023/01/05 10:35:39;;;;;;;13.45;8.50;;;;;;;10.16;100.00;93425.75;5088989;28;20044;-70
2023/01/05 10:38:19;;;;;;;14.85;9.07;;;;;;;10.30;100.00;93428.28;5089030;28;20044;-70
2023/01/05 10:40:57;;;;;;;12.23;8.43;;;;;;;10.32;100.00;93422.94;5088957;28;20044;-70
2023/01/05 10:43:39;;;;;;;10.73;7.13;;;;;;;10.41;100.00;93422.50;5088781;28;20044;-70
2023/01/05 10:46:10;;;;;;;10.27;6.82;;;;;;;10.35;100.00;93412.25;5091411;28;20070;-70
2023/01/05 10:48:36;;;;;;;11.95;7.95;;;;;;;10.36;100.00;93413.81;5093451;28;20048;-71
2023/01/05 10:51:07;;;;;;;9.73;6.72;;;;;;;10.39;100.00;93408.28;5093148;28;20048;-70
2023/01/05 10:53:37;;;;;;;14.27;8.02;;;;;;;10.37;100.00;93400.00;5093072;28;20389;-70
2023/01/05 10:56:06;;;;;;;11.55;8.25;;;;;;;10.59;100.00;93399.75;5093268;28;20113;-70
2023/01/05 10:58:34;;;;;;;11.60;7.78;;;;;;;10.64;100.00;93402.50;5093040;28;20044;-70
2023/01/05 11:01:04;;;;;;;10.13;7.70;;;;;;;10.64;100.00;93384.53;5093037;28;20090;-70
2023/01/05 11:03:37;;;;;;;11.38;7.55;;;;;;;10.62;100.00;93383.91;5092985;28;20051;-70
2023/01/05 11:06:07;;;;;;;10.85;7.30;;;;;;;10.67;100.00;93384.09;5092990;28;20051;-70
2023/01/05 11:08:35;;;;;;;12.80;7.78;;;;;;;10.71;100.00;93379.34;5092655;28;20044;-70
2023/01/05 11:11:04;;;;;;;10.40;7.32;;;;;;;10.67;100.00;93377.19;5092674;28;20567;-71
2023/01/05 11:13:34;;;;;;;11.75;7.60;;;;;;;10.72;100.00;93378.34;5092918;28;20082;-70
2023/01/05 11:16:08;;;;;;;11.82;7.93;;;;;;;10.62;100.00;93376.22;5092829;28;20052;-70
2023/01/05 11:18:39;;;;;;;11.13;7.57;;;;;;;10.67;100.00;93369.47;5092570;28;20504;-70
2023/01/05 11:21:13;;;;;;;12.30;8.45;;;;;;;10.80;100.00;93365.25;5092559;28;20542;-70
2023/01/05 11:23:42;;;;;;;13.05;8.93;;;;;;;10.90;100.00;93360.44;5092241;28;20085;-70
2023/01/05 11:26:30;;;;;;;12.50;8.10;;;;;;;10.83;100.00;93350.22;5092416;28;20047;-70
2023/01/05 11:29:00;;;;;;;13.23;9.07;;;;;;;10.89;100.00;93346.03;5092706;28;20044;-70
2023/01/05 11:31:32;;;;;;;12.80;8.15;;;;;;;10.90;100.00;93351.94;5092240;28;20496;-70
2023/01/05 11:34:04;;;;;;;11.63;7.80;;;;;;;10.93;100.00;93352.31;5092036;28;20395;-70
2023/01/05 11:36:32;;;;;;;13.82;8.77;;;;;;;11.00;100.00;93357.41;5092295;28;20097;-70
2023/01/05 11:38:59;;;;;;;14.80;8.93;;;;;;;10.93;100.00;93359.25;5092215;28;20503;-70
2023/01/05 11:41:26;;;;;;;13.80;8.80;;;;;;;11.01;100.00;93351.28;5090794;28;20044;-70
2023/01/05 11:43:54;;;;;;;31.08;19.65;;;;;;;11.11;100.00;93353.38;5076778;28;20040;-70
2023/01/05 11:46:22;;;;;;;14.35;10.00;;;;;;;11.13;100.00;93348.03;5090298;28;20172;-71
2023/01/05 11:48:54;;;;;;;12.48;8.77;;;;;;;11.08;100.00;93338.38;5091846;28;20066;-70
2023/01/05 11:51:38;;;;;;;16.45;8.27;;;;;;;11.07;100.00;93342.72;5091945;28;20056;-70
2023/01/05 11:54:05;;;;;;;16.83;12.48;;;;;;;11.25;100.00;93337.88;5089913;28;20101;-71
2023/01/05 11:56:32;;;;;;;17.50;9.18;;;;;;;11.36;100.00;93342.31;5088212;28;20052;-70
2023/01/05 11:58:59;;;;;;;17.45;10.55;;;;;;;11.42;100.00;93351.75;5070859;28;20564;-71
2023/01/05 12:02:03;;;;;;;15.93;8.32;;;;;;;11.39;100.00;93341.13;5070858;28;20056;-71
2023/01/05 12:05:01;;;;;;;86.32;41.05;;;;;;;11.41;100.00;93337.34;5071631;28;20052;-70
2023/01/05 12:07:34;;;;;;;14.98;9.50;;;;;;;11.35;100.00;93327.91;5091487;28;20051;-71